Egypt, Arkansas
Current Conditions -  °F | °C
As of 8:53 PM on Saturday 20 Dec 2014 (Local Time) from KJBR Reporting Station
Broken Clouds Broken Clouds  
Wind Chill: 33°   Ceiling: 2800
Heat Index: 37°   Visibility: 10mi
Dew Point: 34°   Wind: 5mph
Humidity: 89%   Direction: 30°NNE
Pressure: 30.26"   Gusts: NA
Location:  35.87°N, 90.95°W
Report Text: KJBR 210253Z AUTO 03004KT 10SM BKN028 03/01 A3026 RMK AO2 SLP249 T00280011 51004
Loading
Personal Weather Stations






























Interactive Weather Map New forecast layout! Learn more

10-Day Weather Forecast

Advertisements
Track Severe Weather on mobile